sensor_id;sensor_type;location;lat;lon;timestamp;pressure;altitude;pressure_sealevel;temperature;humidity
71149;BME280;59072;42.144;25.200;2023-04-09T00:00:33;100482.09;;;7.00;100.00
71149;BME280;59072;42.144;25.200;2023-04-09T00:02:58;100480.41;;;6.77;100.00
71149;BME280;59072;42.144;25.200;2023-04-09T00:05:24;100487.25;;;6.87;100.00
71149;BME280;59072;42.144;25.200;2023-04-09T00:07:49;100477.28;;;6.74;100.00
71149;BME280;59072;42.144;25.200;2023-04-09T00:10:15;100483.03;;;6.77;100.00
71149;BME280;59072;42.144;25.200;2023-04-09T00:12:40;100475.75;;;6.64;100.00
71149;BME280;59072;42.144;25.200;2023-04-09T00:15:06;100481.31;;;6.84;100.00
71149;BME280;59072;42.144;25.200;2023-04-09T00:17:32;100491.00;;;6.77;100.00
71149;BME280;59072;42.144;25.200;2023-04-09T00:19:57;100478.94;;;6.60;100.00
71149;BME280;59072;42.144;25.200;2023-04-09T00:22:23;100485.16;;;6.67;100.00
71149;BME280;59072;42.144;25.200;2023-04-09T00:24:48;100485.72;;;6.62;100.00
71149;BME280;59072;42.144;25.200;2023-04-09T00:27:14;100479.66;;;6.54;100.00
71149;BME280;59072;42.144;25.200;2023-04-09T00:29:39;100490.06;;;6.55;100.00
71149;BME280;59072;42.144;25.200;2023-04-09T00:32:05;100496.13;;;6.79;100.00
71149;BME280;59072;42.144;25.200;2023-04-09T00:34:30;100486.97;;;6.52;100.00
71149;BME280;59072;42.144;25.200;2023-04-09T00:36:56;100496.88;;;6.58;100.00
71149;BME280;59072;42.144;25.200;2023-04-09T00:39:21;100502.34;;;6.71;100.00
71149;BME280;59072;42.144;25.200;2023-04-09T00:41:47;100499.78;;;6.63;100.00
71149;BME280;59072;42.144;25.200;2023-04-09T00:44:12;100497.97;;;6.78;100.00
71149;BME280;59072;42.144;25.200;2023-04-09T00:46:38;100499.41;;;6.66;100.00
71149;BME280;59072;42.144;25.200;2023-04-09T00:49:04;100503.44;;;6.77;100.00
71149;BME280;59072;42.144;25.200;2023-04-09T00:51:30;100508.00;;;6.83;100.00
71149;BME280;59072;42.144;25.200;2023-04-09T00:53:55;100512.44;;;7.12;100.00
71149;BME280;59072;42.144;25.200;2023-04-09T00:56:22;100509.75;;;6.91;100.00
71149;BME280;59072;42.144;25.200;2023-04-09T00:58:48;100513.88;;;6.78;100.00
71149;BME280;59072;42.144;25.200;2023-04-09T01:01:13;100517.03;;;6.74;100.00
71149;BME280;59072;42.144;25.200;2023-04-09T01:03:39;100510.66;;;6.83;100.00
71149;BME280;59072;42.144;25.200;2023-04-09T01:06:19;100517.50;;;6.77;100.00
71149;BME280;59072;42.144;25.200;2023-04-09T01:09:08;100489.81;;;6.50;100.00
71149;BME280;59072;42.144;25.200;2023-04-09T01:14:43;100521.00;;;6.93;100.00
71149;BME280;59072;42.144;25.200;2023-04-09T01:17:18;100506.34;;;6.67;100.00
71149;BME280;59072;42.144;25.200;2023-04-09T01:20:13;100509.28;;;6.72;100.00
71149;BME280;59072;42.144;25.200;2023-04-09T01:30:30;100516.34;;;6.27;100.00
71149;BME280;59072;42.144;25.200;2023-04-09T01:32:56;100515.44;;;6.20;100.00
71149;BME280;59072;42.144;25.200;2023-04-09T01:35:24;100500.81;;;6.24;100.00
71149;BME280;59072;42.144;25.200;2023-04-09T01:37:51;100514.63;;;6.19;100.00
71149;BME280;59072;42.144;25.200;2023-04-09T01:40:17;100516.47;;;6.34;100.00
71149;BME280;59072;42.144;25.200;2023-04-09T01:42:42;100516.34;;;6.27;100.00
71149;BME280;59072;42.144;25.200;2023-04-09T01:45:09;100523.88;;;6.38;100.00
71149;BME280;59072;42.144;25.200;2023-04-09T01:47:36;100524.13;;;6.29;100.00
71149;BME280;59072;42.144;25.200;2023-04-09T01:50:02;100527.94;;;6.26;100.00
71149;BME280;59072;42.144;25.200;2023-04-09T01:52:28;100514.00;;;6.32;100.00
71149;BME280;59072;42.144;25.200;2023-04-09T01:54:53;100519.84;;;6.42;100.00
71149;BME280;59072;42.144;25.200;2023-04-09T01:57:19;100514.00;;;6.32;100.00
71149;BME280;59072;42.144;25.200;2023-04-09T01:59:44;100518.41;;;6.40;100.00
71149;BME280;59072;42.144;25.200;2023-04-09T02:02:17;100518.34;;;6.25;100.00
71149;BME280;59072;42.144;25.200;2023-04-09T02:04:46;100519.28;;;6.32;100.00
71149;BME280;59072;42.144;25.200;2023-04-09T02:07:20;100527.31;;;6.24;100.00
71149;BME280;59072;42.144;25.200;2023-04-09T02:09:52;100506.31;;;6.37;100.00
71149;BME280;59072;42.144;25.200;2023-04-09T02:12:19;100519.94;;;6.49;100.00
71149;BME280;59072;42.144;25.200;2023-04-09T02:14:46;100523.88;;;6.38;100.00
71149;BME280;59072;42.144;25.200;2023-04-09T02:17:12;100526.94;;;6.27;100.00
71149;BME280;59072;42.144;25.200;2023-04-09T02:22:04;100526.22;;;6.33;100.00
71149;BME280;59072;42.144;25.200;2023-04-09T02:24:29;100527.88;;;6.34;100.00
71149;BME280;59072;42.144;25.200;2023-04-09T02:26:55;100526.09;;;6.12;100.00
71149;BME280;59072;42.144;25.200;2023-04-09T02:29:20;100528.44;;;6.44;100.00
71149;BME280;59072;42.144;25.200;2023-04-09T02:31:45;100525.41;;;6.33;100.00
71149;BME280;59072;42.144;25.200;2023-04-09T02:34:11;100529.69;;;5.96;100.00
71149;BME280;59072;42.144;25.200;2023-04-09T02:36:36;100538.50;;;6.11;100.00
71149;BME280;59072;42.144;25.200;2023-04-09T02:39:02;100540.38;;;6.02;100.00
71149;BME280;59072;42.144;25.200;2023-04-09T02:41:28;100544.03;;;6.01;100.00
71149;BME280;59072;42.144;25.200;2023-04-09T02:43:53;100544.31;;;6.07;100.00
71149;BME280;59072;42.144;25.200;2023-04-09T02:46:19;100548.16;;;6.04;100.00
71149;BME280;59072;42.144;25.200;2023-04-09T02:48:44;100546.16;;;6.06;100.00
71149;BME280;59072;42.144;25.200;2023-04-09T02:51:10;100525.53;;;5.93;100.00
71149;BME280;59072;42.144;25.200;2023-04-09T02:53:35;100553.56;;;6.11;100.00
71149;BME280;59072;42.144;25.200;2023-04-09T02:56:03;100550.00;;;6.03;100.00
71149;BME280;59072;42.144;25.200;2023-04-09T02:58:29;100562.03;;;6.06;100.00
71149;BME280;59072;42.144;25.200;2023-04-09T03:00:54;100560.25;;;5.98;100.00
71149;BME280;59072;42.144;25.200;2023-04-09T03:03:19;100548.56;;;6.16;100.00
71149;BME280;59072;42.144;25.200;2023-04-09T03:05:45;100547.47;;;6.25;100.00
71149;BME280;59072;42.144;25.200;2023-04-09T03:08:10;100555.16;;;6.58;100.00
71149;BME280;59072;42.144;25.200;2023-04-09T03:10:36;100556.78;;;6.59;100.00
71149;BME280;59072;42.144;25.200;2023-04-09T03:13:01;100556.44;;;6.24;100.00
71149;BME280;59072;42.144;25.200;2023-04-09T03:15:26;100560.13;;;6.38;100.00
71149;BME280;59072;42.144;25.200;2023-04-09T03:17:52;100561.34;;;6.12;100.00
71149;BME280;59072;42.144;25.200;2023-04-09T03:20:17;100562.50;;;6.10;100.00
71149;BME280;59072;42.144;25.200;2023-04-09T03:22:43;100561.78;;;5.93;100.00
71149;BME280;59072;42.144;25.200;2023-04-09T03:25:08;100550.47;;;5.76;100.00
71149;BME280;59072;42.144;25.200;2023-04-09T03:27:34;100562.22;;;6.04;100.00
71149;BME280;59072;42.144;25.200;2023-04-09T03:29:59;100565.44;;;6.15;100.00
71149;BME280;59072;42.144;25.200;2023-04-09T03:32:24;100551.69;;;5.96;100.00
71149;BME280;59072;42.144;25.200;2023-04-09T03:34:50;100560.94;;;5.92;100.00
71149;BME280;59072;42.144;25.200;2023-04-09T03:37:15;100558.00;;;5.95;100.00
71149;BME280;59072;42.144;25.200;2023-04-09T03:39:41;100565.94;;;5.95;100.00
71149;BME280;59072;42.144;25.200;2023-04-09T03:42:06;100564.00;;;5.81;100.00
71149;BME280;59072;42.144;25.200;2023-04-09T03:44:32;100572.94;;;6.11;100.00
71149;BME280;59072;42.144;25.200;2023-04-09T03:46:57;100569.59;;;6.17;100.00
71149;BME280;59072;42.144;25.200;2023-04-09T03:49:22;100570.09;;;6.13;100.00
71149;BME280;59072;42.144;25.200;2023-04-09T03:51:48;100574.16;;;6.23;100.00
71149;BME280;59072;42.144;25.200;2023-04-09T03:54:13;100569.81;;;6.08;100.00
71149;BME280;59072;42.144;25.200;2023-04-09T03:56:39;100581.31;;;6.15;100.00
71149;BME280;59072;42.144;25.200;2023-04-09T03:59:05;100574.47;;;6.06;100.00
71149;BME280;59072;42.144;25.200;2023-04-09T04:01:30;100580.03;;;6.11;100.00
71149;BME280;59072;42.144;25.200;2023-04-09T04:03:56;100578.75;;;6.07;100.00
71149;BME280;59072;42.144;25.200;2023-04-09T04:06:21;100570.31;;;6.26;100.00
71149;BME280;59072;42.144;25.200;2023-04-09T04:08:47;100578.22;;;6.34;100.00
71149;BME280;59072;42.144;25.200;2023-04-09T04:11:12;100576.16;;;6.59;100.00
71149;BME280;59072;42.144;25.200;2023-04-09T04:13:37;100582.66;;;6.57;100.00
71149;BME280;59072;42.144;25.200;2023-04-09T04:16:06;100583.31;;;6.74;100.00
71149;BME280;59072;42.144;25.200;2023-04-09T04:18:32;100576.75;;;6.84;100.00
71149;BME280;59072;42.144;25.200;2023-04-09T04:20:57;100585.81;;;7.05;100.00
71149;BME280;59072;42.144;25.200;2023-04-09T04:23:23;100587.53;;;6.98;100.00
71149;BME280;59072;42.144;25.200;2023-04-09T04:25:48;100585.72;;;7.13;100.00
71149;BME280;59072;42.144;25.200;2023-04-09T04:28:13;100589.53;;;6.81;100.00
71149;BME280;59072;42.144;25.200;2023-04-09T04:30:42;100586.91;;;6.96;100.00
71149;BME280;59072;42.144;25.200;2023-04-09T04:33:07;100594.59;;;6.91;100.00
71149;BME280;59072;42.144;25.200;2023-04-09T04:35:33;100599.59;;;6.86;100.00
71149;BME280;59072;42.144;25.200;2023-04-09T04:37:58;100600.53;;;6.93;100.00
71149;BME280;59072;42.144;25.200;2023-04-09T04:40:24;100606.22;;;7.19;100.00
71149;BME280;59072;42.144;25.200;2023-04-09T04:42:49;100601.25;;;7.01;100.00
71149;BME280;59072;42.144;25.200;2023-04-09T04:45:15;100593.03;;;7.26;100.00
71149;BME280;59072;42.144;25.200;2023-04-09T04:47:40;100595.84;;;7.24;100.00
71149;BME280;59072;42.144;25.200;2023-04-09T04:50:06;100610.91;;;7.69;100.00
71149;BME280;59072;42.144;25.200;2023-04-09T04:52:32;100604.97;;;7.52;100.00
71149;BME280;59072;42.144;25.200;2023-04-09T04:54:57;100603.25;;;7.44;100.00
71149;BME280;59072;42.144;25.200;2023-04-09T04:57:22;100603.47;;;7.64;100.00
71149;BME280;59072;42.144;25.200;2023-04-09T04:59:48;100604.50;;;7.99;100.00
71149;BME280;59072;42.144;25.200;2023-04-09T05:02:13;100603.59;;;7.71;100.00
71149;BME280;59072;42.144;25.200;2023-04-09T05:04:39;100610.91;;;7.69;100.00
71149;BME280;59072;42.144;25.200;2023-04-09T05:07:04;100603.59;;;7.71;100.00
71149;BME280;59072;42.144;25.200;2023-04-09T05:09:30;100604.22;;;7.73;100.00
71149;BME280;59072;42.144;25.200;2023-04-09T05:11:55;100604.16;;;7.51;100.00
71149;BME280;59072;42.144;25.200;2023-04-09T05:14:21;100604.13;;;7.66;100.00
71149;BME280;59072;42.144;25.200;2023-04-09T05:16:47;100601.16;;;7.54;100.00
71149;BME280;59072;42.144;25.200;2023-04-09T05:19:12;100599.75;;;7.58;100.00
71149;BME280;59072;42.144;25.200;2023-04-09T05:21:37;100605.59;;;7.69;100.00
71149;BME280;59072;42.144;25.200;2023-04-09T05:24:03;100610.06;;;7.83;100.00
71149;BME280;59072;42.144;25.200;2023-04-09T05:26:29;100588.19;;;7.81;100.00
71149;BME280;59072;42.144;25.200;2023-04-09T05:28:54;100600.94;;;7.92;100.00
71149;BME280;59072;42.144;25.200;2023-04-09T05:31:20;100602.97;;;7.90;100.00
71149;BME280;59072;42.144;25.200;2023-04-09T05:33:45;100602.09;;;8.26;100.00
71149;BME280;59072;42.144;25.200;2023-04-09T05:36:15;100602.41;;;8.16;100.00
71149;BME280;59072;42.144;25.200;2023-04-09T05:38:42;100608.72;;;7.94;100.00
71149;BME280;59072;42.144;25.200;2023-04-09T05:41:07;100609.19;;;8.19;100.00
71149;BME280;59072;42.144;25.200;2023-04-09T05:43:33;100610.38;;;8.16;100.00
71149;BME280;59072;42.144;25.200;2023-04-09T05:45:58;100614.50;;;8.19;100.00
71149;BME280;59072;42.144;25.200;2023-04-09T05:48:23;100618.03;;;8.04;100.00
71149;BME280;59072;42.144;25.200;2023-04-09T05:50:52;100608.38;;;8.18;100.00
71149;BME280;59072;42.144;25.200;2023-04-09T05:53:18;100615.53;;;8.18;100.00
71149;BME280;59072;42.144;25.200;2023-04-09T05:55:44;100609.56;;;8.16;100.00
71149;BME280;59072;42.144;25.200;2023-04-09T05:58:10;100590.84;;;8.02;100.00
71149;BME280;59072;42.144;25.200;2023-04-09T06:00:36;100611.66;;;8.20;100.00
71149;BME280;59072;42.144;25.200;2023-04-09T06:03:02;100604.22;;;7.94;100.00
71149;BME280;59072;42.144;25.200;2023-04-09T06:05:27;100606.88;;;7.94;100.00
71149;BME280;59072;42.144;25.200;2023-04-09T06:07:53;100601.69;;;7.86;100.00
71149;BME280;59072;42.144;25.200;2023-04-09T06:10:18;100605.13;;;8.01;100.00
71149;BME280;59072;42.144;25.200;2023-04-09T06:12:43;100608.81;;;8.22;100.00
71149;BME280;59072;42.144;25.200;2023-04-09T06:15:09;100608.81;;;8.43;100.00
71149;BME280;59072;42.144;25.200;2023-04-09T06:17:35;100609.72;;;8.51;100.00
71149;BME280;59072;42.144;25.200;2023-04-09T06:20:00;100606.41;;;9.05;100.00
71149;BME280;59072;42.144;25.200;2023-04-09T06:22:26;100616.38;;;8.68;100.00
71149;BME280;59072;42.144;25.200;2023-04-09T06:24:51;100611.63;;;8.85;100.00
71149;BME280;59072;42.144;25.200;2023-04-09T06:27:17;100626.88;;;9.04;100.00
71149;BME280;59072;42.144;25.200;2023-04-09T06:29:43;100617.81;;;8.99;100.00
71149;BME280;59072;42.144;25.200;2023-04-09T06:32:08;100624.81;;;9.41;100.00
71149;BME280;59072;42.144;25.200;2023-04-09T06:34:34;100627.28;;;9.91;96.65
71149;BME280;59072;42.144;25.200;2023-04-09T06:36:59;100615.50;;;9.59;97.37
71149;BME280;59072;42.144;25.200;2023-04-09T06:39:25;100619.97;;;9.52;94.91
71149;BME280;59072;42.144;25.200;2023-04-09T06:41:52;100627.97;;;9.17;98.68
71149;BME280;59072;42.144;25.200;2023-04-09T06:44:17;100621.94;;;9.30;97.18
71149;BME280;59072;42.144;25.200;2023-04-09T06:46:44;100636.94;;;9.44;96.56
71149;BME280;59072;42.144;25.200;2023-04-09T06:49:09;100633.00;;;9.05;98.15
71149;BME280;59072;42.144;25.200;2023-04-09T06:51:35;100624.41;;;9.03;100.00
71149;BME280;59072;42.144;25.200;2023-04-09T06:54:00;100622.91;;;9.70;97.18
71149;BME280;59072;42.144;25.200;2023-04-09T06:56:25;100624.38;;;9.73;94.38
71149;BME280;59072;42.144;25.200;2023-04-09T06:58:51;100627.03;;;9.79;95.91
71149;BME280;59072;42.144;25.200;2023-04-09T07:01:16;100620.28;;;9.77;94.06
71149;BME280;59072;42.144;25.200;2023-04-09T07:03:42;100622.31;;;9.75;94.68
71149;BME280;59072;42.144;25.200;2023-04-09T07:06:07;100618.53;;;9.56;96.04
71149;BME280;59072;42.144;25.200;2023-04-09T07:08:33;100609.00;;;9.27;95.08
71149;BME280;59072;42.144;25.200;2023-04-09T07:10:58;100616.16;;;9.74;94.57
71149;BME280;59072;42.144;25.200;2023-04-09T07:13:23;100621.56;;;9.94;92.96
71149;BME280;59072;42.144;25.200;2023-04-09T07:15:49;100623.75;;;9.77;93.57
71149;BME280;59072;42.144;25.200;2023-04-09T07:18:14;100627.41;;;9.70;92.35
71149;BME280;59072;42.144;25.200;2023-04-09T07:20:40;100634.25;;;9.92;92.54
71149;BME280;59072;42.144;25.200;2023-04-09T07:23:05;100638.06;;;10.58;89.55
71149;BME280;59072;42.144;25.200;2023-04-09T07:25:31;100634.94;;;10.21;89.04
71149;BME280;59072;42.144;25.200;2023-04-09T07:27:57;100630.88;;;10.32;90.48
71149;BME280;59072;42.144;25.200;2023-04-09T07:30:22;100627.91;;;9.93;93.94
71149;BME280;59072;42.144;25.200;2023-04-09T07:32:47;100636.78;;;10.20;93.30
71149;BME280;59072;42.144;25.200;2023-04-09T07:35:13;100629.41;;;10.29;89.72
71149;BME280;59072;42.144;25.200;2023-04-09T07:37:39;100613.59;;;10.21;90.76
71149;BME280;59072;42.144;25.200;2023-04-09T07:40:05;100624.53;;;10.59;89.75
71149;BME280;59072;42.144;25.200;2023-04-09T07:42:31;100629.41;;;10.29;89.35
71149;BME280;59072;42.144;25.200;2023-04-09T07:44:56;100612.63;;;10.35;89.65
71149;BME280;59072;42.144;25.200;2023-04-09T07:47:22;100628.22;;;10.52;89.30
71149;BME280;59072;42.144;25.200;2023-04-09T07:49:48;100617.28;;;10.13;90.68
71149;BME280;59072;42.144;25.200;2023-04-09T07:52:13;100620.31;;;9.97;90.95
71149;BME280;59072;42.144;25.200;2023-04-09T07:54:39;100622.69;;;10.47;89.86
71149;BME280;59072;42.144;25.200;2023-04-09T07:57:05;100615.47;;;11.07;88.29
71149;BME280;59072;42.144;25.200;2023-04-09T07:59:31;100620.41;;;11.10;90.47
71149;BME280;59072;42.144;25.200;2023-04-09T08:01:57;100627.19;;;11.06;85.73
71149;BME280;59072;42.144;25.200;2023-04-09T08:04:22;100630.31;;;10.63;89.48
71149;BME280;59072;42.144;25.200;2023-04-09T08:06:48;100629.88;;;10.79;91.20
71149;BME280;59072;42.144;25.200;2023-04-09T08:09:18;100633.97;;;10.95;88.80
71149;BME280;59072;42.144;25.200;2023-04-09T08:11:43;100627.41;;;10.51;89.97
71149;BME280;59072;42.144;25.200;2023-04-09T08:14:12;100626.41;;;10.59;92.51
71149;BME280;59072;42.144;25.200;2023-04-09T08:16:39;100637.88;;;10.99;88.55
71149;BME280;59072;42.144;25.200;2023-04-09T08:19:05;100635.16;;;11.19;89.51
71149;BME280;59072;42.144;25.200;2023-04-09T08:21:31;100634.31;;;11.32;86.92
71149;BME280;59072;42.144;25.200;2023-04-09T08:23:56;100637.47;;;11.68;85.25
71149;BME280;59072;42.144;25.200;2023-04-09T08:26:25;100633.06;;;11.35;86.46
71149;BME280;59072;42.144;25.200;2023-04-09T08:28:50;100630.47;;;11.66;87.61
71149;BME280;59072;42.144;25.200;2023-04-09T08:31:16;100630.06;;;11.70;82.33
71149;BME280;59072;42.144;25.200;2023-04-09T08:33:41;100642.22;;;12.11;80.84
71149;BME280;59072;42.144;25.200;2023-04-09T08:36:07;100641.81;;;12.07;82.68
71149;BME280;59072;42.144;25.200;2023-04-09T08:38:33;100636.63;;;12.19;79.93
71149;BME280;59072;42.144;25.200;2023-04-09T08:40:58;100638.13;;;12.08;79.58
71149;BME280;59072;42.144;25.200;2023-04-09T08:43:25;100641.66;;;12.34;81.34
71149;BME280;59072;42.144;25.200;2023-04-09T08:45:52;100636.88;;;12.68;77.14
71149;BME280;59072;42.144;25.200;2023-04-09T08:48:22;100635.31;;;13.03;78.06
71149;BME280;59072;42.144;25.200;2023-04-09T08:50:48;100642.59;;;12.96;80.24
71149;BME280;59072;42.144;25.200;2023-04-09T08:53:15;100622.63;;;12.49;79.40
71149;BME280;59072;42.144;25.200;2023-04-09T08:55:44;100636.81;;;12.74;77.69
71149;BME280;59072;42.144;25.200;2023-04-09T08:58:09;100631.84;;;12.78;78.68
71149;BME280;59072;42.144;25.200;2023-04-09T09:00:36;100635.13;;;12.80;78.46
71149;BME280;59072;42.144;25.200;2023-04-09T09:03:09;100622.19;;;13.76;78.38
71149;BME280;59072;42.144;25.200;2023-04-09T09:05:37;100623.91;;;13.70;76.21
71149;BME280;59072;42.144;25.200;2023-04-09T09:08:03;100602.06;;;13.66;75.27
71149;BME280;59072;42.144;25.200;2023-04-09T09:10:45;100605.63;;;13.30;77.01
71149;BME280;59072;42.144;25.200;2023-04-09T09:13:24;100624.69;;;14.73;75.61
71149;BME280;59072;42.144;25.200;2023-04-09T09:15:51;100618.22;;;14.51;71.56
71149;BME280;59072;42.144;25.200;2023-04-09T09:18:20;100613.13;;;15.08;72.94
71149;BME280;59072;42.144;25.200;2023-04-09T09:20:46;100600.59;;;15.78;68.03
71149;BME280;59072;42.144;25.200;2023-04-09T09:23:12;100617.28;;;16.09;64.96
71149;BME280;59072;42.144;25.200;2023-04-09T09:25:40;100613.50;;;15.52;63.32
71149;BME280;59072;42.144;25.200;2023-04-09T09:28:10;100608.72;;;15.83;60.52
71149;BME280;59072;42.144;25.200;2023-04-09T09:30:37;100611.03;;;14.86;63.35
71149;BME280;59072;42.144;25.200;2023-04-09T09:33:10;100615.69;;;16.41;60.39
71149;BME280;59072;42.144;25.200;2023-04-09T09:35:49;100603.31;;;15.54;60.02
71149;BME280;59072;42.144;25.200;2023-04-09T09:38:15;100606.34;;;15.58;63.50
71149;BME280;59072;42.144;25.200;2023-04-09T09:40:41;100605.00;;;15.84;56.68
71149;BME280;59072;42.144;25.200;2023-04-09T09:43:07;100597.22;;;15.18;58.02
71149;BME280;59072;42.144;25.200;2023-04-09T09:45:32;100599.88;;;15.71;57.87
71149;BME280;59072;42.144;25.200;2023-04-09T09:47:58;100597.19;;;15.99;54.78
71149;BME280;59072;42.144;25.200;2023-04-09T09:50:23;100602.41;;;16.52;54.65
71149;BME280;59072;42.144;25.200;2023-04-09T09:52:53;100582.28;;;14.99;57.55
71149;BME280;59072;42.144;25.200;2023-04-09T09:55:23;100585.94;;;15.45;58.16
71149;BME280;59072;42.144;25.200;2023-04-09T09:57:49;100576.13;;;16.08;55.54
71149;BME280;59072;42.144;25.200;2023-04-09T10:00:17;100574.50;;;15.78;54.43
71149;BME280;59072;42.144;25.200;2023-04-09T10:02:56;100553.53;;;15.52;58.15
71149;BME280;59072;42.144;25.200;2023-04-09T10:05:23;100579.22;;;16.17;54.13
71149;BME280;59072;42.144;25.200;2023-04-09T10:07:56;100572.50;;;15.85;56.53
71149;BME280;59072;42.144;25.200;2023-04-09T10:10:22;100566.50;;;15.55;56.46
71149;BME280;59072;42.144;25.200;2023-04-09T10:12:49;100559.91;;;15.62;56.06
71149;BME280;59072;42.144;25.200;2023-04-09T10:15:17;100549.59;;;16.51;55.67
71149;BME280;59072;42.144;25.200;2023-04-09T10:17:43;100563.56;;;16.47;52.91
71149;BME280;59072;42.144;25.200;2023-04-09T10:20:16;100555.09;;;16.39;53.15
71149;BME280;59072;42.144;25.200;2023-04-09T10:22:45;100562.31;;;16.72;51.04
71149;BME280;59072;42.144;25.200;2023-04-09T10:25:12;100566.16;;;16.42;52.94
71149;BME280;59072;42.144;25.200;2023-04-09T10:27:38;100565.38;;;16.98;50.05
71149;BME280;59072;42.144;25.200;2023-04-09T10:30:04;100568.41;;;17.23;48.84
71149;BME280;59072;42.144;25.200;2023-04-09T10:32:35;100556.19;;;17.87;46.38
71149;BME280;59072;42.144;25.200;2023-04-09T10:35:01;100558.03;;;17.10;49.66
71149;BME280;59072;42.144;25.200;2023-04-09T10:37:28;100554.66;;;17.96;48.03
71149;BME280;59072;42.144;25.200;2023-04-09T10:39:54;100538.44;;;17.69;48.72
71149;BME280;59072;42.144;25.200;2023-04-09T10:42:29;100536.75;;;17.63;48.89
71149;BME280;59072;42.144;25.200;2023-04-09T10:45:04;100519.63;;;18.01;49.09
71149;BME280;59072;42.144;25.200;2023-04-09T10:47:32;100523.69;;;17.77;47.69
71149;BME280;59072;42.144;25.200;2023-04-09T10:50:20;100527.88;;;18.22;45.73
71149;BME280;59072;42.144;25.200;2023-04-09T10:52:51;100530.16;;;18.35;44.02
71149;BME280;59072;42.144;25.200;2023-04-09T10:55:37;100518.28;;;17.77;43.78
71149;BME280;59072;42.144;25.200;2023-04-09T10:58:08;100516.84;;;18.66;40.64
71149;BME280;59072;42.144;25.200;2023-04-09T11:00:39;100514.06;;;18.13;42.99
71149;BME280;59072;42.144;25.200;2023-04-09T11:05:35;100509.22;;;17.83;39.53
71149;BME280;59072;42.144;25.200;2023-04-09T11:10:33;100506.59;;;17.93;35.34
71149;BME280;59072;42.144;25.200;2023-04-09T11:13:00;100504.25;;;17.75;36.92
71149;BME280;59072;42.144;25.200;2023-04-09T11:15:25;100505.88;;;18.03;37.39
71149;BME280;59072;42.144;25.200;2023-04-09T11:17:51;100493.75;;;18.96;36.29
71149;BME280;59072;42.144;25.200;2023-04-09T11:20:20;100486.03;;;18.62;39.06
71149;BME280;59072;42.144;25.200;2023-04-09T11:22:48;100494.88;;;18.47;36.88
71149;BME280;59072;42.144;25.200;2023-04-09T11:25:27;100492.97;;;17.78;34.67
71149;BME280;59072;42.144;25.200;2023-04-09T11:27:54;100474.28;;;17.98;38.66
71149;BME280;59072;42.144;25.200;2023-04-09T11:30:20;100464.00;;;17.68;38.71
71149;BME280;59072;42.144;25.200;2023-04-09T11:32:46;100470.88;;;17.26;40.90
71149;BME280;59072;42.144;25.200;2023-04-09T11:35:20;100474.44;;;18.24;37.99
71149;BME280;59072;42.144;25.200;2023-04-09T11:37:46;100471.63;;;18.46;38.48
71149;BME280;59072;42.144;25.200;2023-04-09T11:40:22;100474.97;;;18.21;36.46
71149;BME280;59072;42.144;25.200;2023-04-09T11:42:49;100460.94;;;18.19;38.91
71149;BME280;59072;42.144;25.200;2023-04-09T11:45:16;100469.75;;;18.52;37.61
71149;BME280;59072;42.144;25.200;2023-04-09T11:47:43;100464.75;;;18.76;37.63
71149;BME280;59072;42.144;25.200;2023-04-09T11:50:09;100464.97;;;18.69;34.79
71149;BME280;59072;42.144;25.200;2023-04-09T11:52:36;100458.03;;;18.83;34.89
71149;BME280;59072;42.144;25.200;2023-04-09T11:55:02;100453.88;;;19.34;33.14
71149;BME280;59072;42.144;25.200;2023-04-09T11:57:41;100452.78;;;19.35;35.13
71149;BME280;59072;42.144;25.200;2023-04-09T12:00:09;100452.25;;;19.43;35.89
71149;BME280;59072;42.144;25.200;2023-04-09T12:02:37;100447.94;;;19.47;34.60
71149;BME280;59072;42.144;25.200;2023-04-09T12:05:03;100448.47;;;19.59;33.71
71149;BME280;59072;42.144;25.200;2023-04-09T12:07:36;100448.53;;;19.75;33.81
71149;BME280;59072;42.144;25.200;2023-04-09T12:10:08;100443.13;;;19.80;32.47
71149;BME280;59072;42.144;25.200;2023-04-09T12:12:45;100441.47;;;20.15;32.24
71149;BME280;59072;42.144;25.200;2023-04-09T12:15:17;100445.84;;;19.80;32.27
71149;BME280;59072;42.144;25.200;2023-04-09T12:17:42;100432.72;;;19.10;32.85
71149;BME280;59072;42.144;25.200;2023-04-09T12:20:08;100408.38;;;19.00;33.64
71149;BME280;59072;42.144;25.200;2023-04-09T12:22:34;100421.91;;;19.05;32.39
71149;BME280;59072;42.144;25.200;2023-04-09T12:25:01;100426.78;;;19.18;33.07
71149;BME280;59072;42.144;25.200;2023-04-09T12:27:27;100426.81;;;19.23;34.24
71149;BME280;59072;42.144;25.200;2023-04-09T12:29:52;100429.81;;;19.27;33.86
71149;BME280;59072;42.144;25.200;2023-04-09T12:32:17;100421.41;;;20.31;34.21
71149;BME280;59072;42.144;25.200;2023-04-09T12:34:43;100413.31;;;19.23;34.61
71149;BME280;59072;42.144;25.200;2023-04-09T12:37:09;100411.72;;;19.79;33.44
71149;BME280;59072;42.144;25.200;2023-04-09T12:39:34;100416.84;;;19.50;34.68
71149;BME280;59072;42.144;25.200;2023-04-09T12:42:00;100413.59;;;19.63;34.29
71149;BME280;59072;42.144;25.200;2023-04-09T12:44:25;100414.31;;;18.97;32.30
71149;BME280;59072;42.144;25.200;2023-04-09T12:46:51;100411.69;;;19.48;32.84
71149;BME280;59072;42.144;25.200;2023-04-09T12:49:17;100407.88;;;19.18;33.64
71149;BME280;59072;42.144;25.200;2023-04-09T12:51:42;100405.09;;;18.82;34.11
71149;BME280;59072;42.144;25.200;2023-04-09T12:54:08;100401.34;;;19.04;34.78
71149;BME280;59072;42.144;25.200;2023-04-09T12:56:33;100391.34;;;18.94;34.77